Dayton, OH (45432)

11:16 PM EDT on September 15, 2014 (GMT -0400)
KXDIOHBE1 | Change Station
CLOSE
Current Station
Personal Weather Station
Location: Beavercreek, OH
Elevation: 942 ft
Nearby Weather Stations

Elev 942 ft 39.74 °N, 84.08 °W | Updated 8 seconds ago

Overcast
Overcast
57.8 °F
Feels Like 57.8 °F
N
0.0
Wind Variable Wind from WNW
Gusts 0.0 mph

Today
High -- | Low -- °F
--% Chance of Precip.
Yesterday
High -- | Low -- °F
Precip. -- in
7:17 AM 7:44 PM
Waning Gibbous, 50% visible
Pressure 30.12 in
Visibility 8.0 miles
Clouds Mostly Cloudy 1200 ft
Overcast 1900 ft
Dew Point 56 °F
Humidity 94%
Rainfall 0.09 in
Snow Depth Not available.
UV 0 out of 12
Pollen 6.00 out of 12
Ozone Good
PM2.5 Good
Flu Activity Not available.
METAR KFFO 160258Z AUTO 29009KT 8SM R23R/5500FT -DZ BKN012 OVC019 15/13 A3011 RMK AO2 DZB0249 CIG 012V016 SLP197 P0000 60000 T01520134 52012

More Conditions Fewer Conditions

Pressure 30.12 in
Visibility 8.0 miles
Clouds Mostly Cloudy 1200 ft
Overcast 1900 ft
Dew Point 56 °F
Humidity 94%
Rainfall 0.09 in
Snow Depth Not available.
UV 0 out of 12
Pollen 6.00 out of 12
Ozone Good
PM2.5 Good
Flu Activity Not available.
METAR KFFO 160258Z AUTO 29009KT 8SM R23R/5500FT -DZ BKN012 OVC019 15/13 A3011 RMK AO2 DZB0249 CIG 012V016 SLP197 P0000 60000 T01520134 52012

More Conditions Fewer Conditions

10-Day Weather Forecast

Almanac

Astronomy

Sep. 15, 2014 Rise Set
Actual Time 7:17 AM EDT 7:44 PM EDT
Civil Twilight 6:50 AM EDT 8:11 PM EDT
Nautical Twilight 6:18 AM EDT 8:43 PM EDT
Astronomical Twilight 5:45 AM EDT 9:16 PM EDT
Moon No Moon Rise 2:15 PM EDT (9/15)
Length of Visible Light 13h 21m
Length of Day
12h 27m
Tomorrow will be 2m 35s shorter.
Waning Gibbous, 50% of the Moon is Illuminated
Today
Waning Gibbous
Sep 24
New
Oct 1
First Quarter
Oct 8
Full
Oct 15
Last Quarter

Today's Extremes

State Highs State Lows

Community

WunderPhotos

Upload Photos

1,753,694 photos uploaded!

Nearby

Air Quality

  Air Quality AQ Index Pollutant
Yesterday Good
OZONE
Yesterday Good
PM2.5
Current Good
PM2.5
Current Good
OZONE
Monday Good
PM2.5
Monday Good
OZONE
Tuesday Good
OZONE
Tuesday Good
PM2.5
Wednesday Good
OZONE
Wednesday Good
PM2.5
Thursday Good
PM2.5
Thursday Good
OZONE
Friday Good
PM2.5
Friday Good
OZONE

Snow Depth

Station Depth Elevation
No new snow has been reported.

Earthquake Activity

City Distance Mag. Time & Date
No recent earthquake activity has been reported nearby.
Minimum magnitude displayed is 2.5.

Coastal Water Temperatures

Place Temperature
No Stations Reporting

Nearby Weather Stations